sensor_id;sensor_type;location;lat;lon;timestamp;P1;durP1;ratioP1;P2;durP2;ratioP2
3747;SDS011;1889;50.058;8.688;2024-02-21T00:00:34;9.35;;;4.58;;
3747;SDS011;1889;50.058;8.688;2024-02-21T00:03:05;9.60;;;3.90;;
3747;SDS011;1889;50.058;8.688;2024-02-21T00:05:37;9.90;;;4.95;;
3747;SDS011;1889;50.058;8.688;2024-02-21T00:08:06;12.00;;;4.53;;
3747;SDS011;1889;50.058;8.688;2024-02-21T00:13:44;10.10;;;4.78;;
3747;SDS011;1889;50.058;8.688;2024-02-21T00:16:14;11.45;;;4.55;;
3747;SDS011;1889;50.058;8.688;2024-02-21T00:18:44;10.20;;;4.97;;
3747;SDS011;1889;50.058;8.688;2024-02-21T00:21:14;15.45;;;5.28;;
3747;SDS011;1889;50.058;8.688;2024-02-21T00:23:45;11.88;;;4.97;;
3747;SDS011;1889;50.058;8.688;2024-02-21T00:26:20;9.08;;;5.03;;
3747;SDS011;1889;50.058;8.688;2024-02-21T00:28:50;14.55;;;5.22;;
3747;SDS011;1889;50.058;8.688;2024-02-21T00:31:24;11.10;;;5.25;;
3747;SDS011;1889;50.058;8.688;2024-02-21T00:33:59;12.33;;;5.10;;
3747;SDS011;1889;50.058;8.688;2024-02-21T00:36:28;9.78;;;4.95;;
3747;SDS011;1889;50.058;8.688;2024-02-21T00:39:01;14.78;;;5.45;;
3747;SDS011;1889;50.058;8.688;2024-02-21T00:41:32;9.30;;;5.35;;
3747;SDS011;1889;50.058;8.688;2024-02-21T00:44:03;11.38;;;5.20;;
3747;SDS011;1889;50.058;8.688;2024-02-21T00:46:39;12.37;;;5.62;;
3747;SDS011;1889;50.058;8.688;2024-02-21T00:49:28;9.63;;;5.22;;
3747;SDS011;1889;50.058;8.688;2024-02-21T00:52:01;8.70;;;5.58;;
3747;SDS011;1889;50.058;8.688;2024-02-21T00:54:35;10.82;;;5.47;;
3747;SDS011;1889;50.058;8.688;2024-02-21T00:57:06;10.72;;;5.92;;
3747;SDS011;1889;50.058;8.688;2024-02-21T00:59:38;10.20;;;5.62;;
3747;SDS011;1889;50.058;8.688;2024-02-21T01:02:09;11.15;;;5.72;;
3747;SDS011;1889;50.058;8.688;2024-02-21T01:04:41;13.22;;;6.15;;
3747;SDS011;1889;50.058;8.688;2024-02-21T01:07:13;11.60;;;5.47;;
3747;SDS011;1889;50.058;8.688;2024-02-21T01:09:47;14.13;;;6.40;;
3747;SDS011;1889;50.058;8.688;2024-02-21T01:12:18;14.58;;;5.85;;
3747;SDS011;1889;50.058;8.688;2024-02-21T01:14:47;9.53;;;5.92;;
3747;SDS011;1889;50.058;8.688;2024-02-21T01:17:17;11.15;;;6.17;;
3747;SDS011;1889;50.058;8.688;2024-02-21T01:19:46;10.25;;;5.92;;
3747;SDS011;1889;50.058;8.688;2024-02-21T01:22:16;13.53;;;6.22;;
3747;SDS011;1889;50.058;8.688;2024-02-21T01:24:45;15.50;;;6.33;;
3747;SDS011;1889;50.058;8.688;2024-02-21T01:27:14;13.58;;;6.62;;
3747;SDS011;1889;50.058;8.688;2024-02-21T01:29:44;9.70;;;5.30;;
3747;SDS011;1889;50.058;8.688;2024-02-21T01:32:15;11.25;;;5.85;;
3747;SDS011;1889;50.058;8.688;2024-02-21T01:34:44;10.32;;;6.08;;
3747;SDS011;1889;50.058;8.688;2024-02-21T01:37:14;11.60;;;6.12;;
3747;SDS011;1889;50.058;8.688;2024-02-21T01:39:43;11.68;;;6.45;;
3747;SDS011;1889;50.058;8.688;2024-02-21T01:42:12;8.20;;;5.75;;
3747;SDS011;1889;50.058;8.688;2024-02-21T01:44:42;7.83;;;6.22;;
3747;SDS011;1889;50.058;8.688;2024-02-21T01:47:11;13.10;;;6.65;;
3747;SDS011;1889;50.058;8.688;2024-02-21T01:49:42;12.20;;;6.53;;
3747;SDS011;1889;50.058;8.688;2024-02-21T01:52:11;9.48;;;6.47;;
3747;SDS011;1889;50.058;8.688;2024-02-21T01:54:43;10.53;;;6.33;;
3747;SDS011;1889;50.058;8.688;2024-02-21T01:57:15;13.62;;;7.62;;
3747;SDS011;1889;50.058;8.688;2024-02-21T01:59:44;12.78;;;6.47;;
3747;SDS011;1889;50.058;8.688;2024-02-21T02:02:13;12.45;;;6.28;;
3747;SDS011;1889;50.058;8.688;2024-02-21T02:04:43;14.03;;;6.30;;
3747;SDS011;1889;50.058;8.688;2024-02-21T02:07:14;12.35;;;6.78;;
3747;SDS011;1889;50.058;8.688;2024-02-21T02:09:43;10.88;;;6.92;;
3747;SDS011;1889;50.058;8.688;2024-02-21T02:12:12;13.08;;;6.53;;
3747;SDS011;1889;50.058;8.688;2024-02-21T02:14:42;14.10;;;6.95;;
3747;SDS011;1889;50.058;8.688;2024-02-21T02:17:11;14.13;;;6.78;;
3747;SDS011;1889;50.058;8.688;2024-02-21T02:19:40;10.65;;;6.87;;
3747;SDS011;1889;50.058;8.688;2024-02-21T02:22:12;13.05;;;6.83;;
3747;SDS011;1889;50.058;8.688;2024-02-21T02:24:42;9.40;;;6.65;;
3747;SDS011;1889;50.058;8.688;2024-02-21T02:27:12;9.90;;;6.25;;
3747;SDS011;1889;50.058;8.688;2024-02-21T02:29:42;15.72;;;6.25;;
3747;SDS011;1889;50.058;8.688;2024-02-21T02:32:11;12.47;;;6.58;;
3747;SDS011;1889;50.058;8.688;2024-02-21T02:34:41;11.70;;;6.62;;
3747;SDS011;1889;50.058;8.688;2024-02-21T02:37:10;13.45;;;6.83;;
3747;SDS011;1889;50.058;8.688;2024-02-21T02:39:39;12.15;;;7.05;;
3747;SDS011;1889;50.058;8.688;2024-02-21T02:42:09;11.93;;;6.50;;
3747;SDS011;1889;50.058;8.688;2024-02-21T02:44:38;12.20;;;6.83;;
3747;SDS011;1889;50.058;8.688;2024-02-21T02:47:08;10.68;;;6.12;;
3747;SDS011;1889;50.058;8.688;2024-02-21T02:49:37;11.15;;;6.35;;
3747;SDS011;1889;50.058;8.688;2024-02-21T02:52:07;12.45;;;6.90;;
3747;SDS011;1889;50.058;8.688;2024-02-21T02:54:36;15.90;;;7.33;;
3747;SDS011;1889;50.058;8.688;2024-02-21T02:57:05;9.25;;;6.42;;
3747;SDS011;1889;50.058;8.688;2024-02-21T02:59:34;9.58;;;6.30;;
3747;SDS011;1889;50.058;8.688;2024-02-21T03:02:04;10.82;;;6.70;;
3747;SDS011;1889;50.058;8.688;2024-02-21T03:04:33;11.45;;;6.47;;
3747;SDS011;1889;50.058;8.688;2024-02-21T03:07:02;13.80;;;6.53;;
3747;SDS011;1889;50.058;8.688;2024-02-21T03:09:32;14.98;;;7.10;;
3747;SDS011;1889;50.058;8.688;2024-02-21T03:12:01;11.38;;;6.00;;
3747;SDS011;1889;50.058;8.688;2024-02-21T03:14:33;10.38;;;6.70;;
3747;SDS011;1889;50.058;8.688;2024-02-21T03:17:03;10.48;;;7.30;;
3747;SDS011;1889;50.058;8.688;2024-02-21T03:19:32;14.05;;;7.17;;
3747;SDS011;1889;50.058;8.688;2024-02-21T03:22:02;15.08;;;7.03;;
3747;SDS011;1889;50.058;8.688;2024-02-21T03:24:33;10.18;;;6.28;;
3747;SDS011;1889;50.058;8.688;2024-02-21T03:27:02;11.88;;;7.20;;
3747;SDS011;1889;50.058;8.688;2024-02-21T03:29:31;9.65;;;6.28;;
3747;SDS011;1889;50.058;8.688;2024-02-21T03:32:00;11.35;;;6.37;;
3747;SDS011;1889;50.058;8.688;2024-02-21T03:34:30;10.58;;;5.92;;
3747;SDS011;1889;50.058;8.688;2024-02-21T03:36:59;13.60;;;6.85;;
3747;SDS011;1889;50.058;8.688;2024-02-21T03:39:35;11.30;;;6.05;;
3747;SDS011;1889;50.058;8.688;2024-02-21T03:42:00;10.95;;;5.87;;
3747;SDS011;1889;50.058;8.688;2024-02-21T03:44:31;14.78;;;6.55;;
3747;SDS011;1889;50.058;8.688;2024-02-21T03:47:01;12.80;;;6.92;;
3747;SDS011;1889;50.058;8.688;2024-02-21T03:49:30;13.48;;;6.30;;
3747;SDS011;1889;50.058;8.688;2024-02-21T03:52:00;10.88;;;6.70;;
3747;SDS011;1889;50.058;8.688;2024-02-21T03:54:29;12.75;;;6.47;;
3747;SDS011;1889;50.058;8.688;2024-02-21T03:56:58;10.68;;;6.15;;
3747;SDS011;1889;50.058;8.688;2024-02-21T03:59:27;11.25;;;6.05;;
3747;SDS011;1889;50.058;8.688;2024-02-21T04:01:57;13.98;;;6.35;;
3747;SDS011;1889;50.058;8.688;2024-02-21T04:04:26;11.05;;;6.12;;
3747;SDS011;1889;50.058;8.688;2024-02-21T04:06:55;12.18;;;5.70;;
3747;SDS011;1889;50.058;8.688;2024-02-21T04:09:25;10.13;;;6.45;;
3747;SDS011;1889;50.058;8.688;2024-02-21T04:11:54;8.63;;;5.87;;
3747;SDS011;1889;50.058;8.688;2024-02-21T04:14:24;10.65;;;6.35;;
3747;SDS011;1889;50.058;8.688;2024-02-21T04:16:53;13.15;;;6.55;;
3747;SDS011;1889;50.058;8.688;2024-02-21T04:19:22;12.20;;;6.37;;
3747;SDS011;1889;50.058;8.688;2024-02-21T04:21:52;13.22;;;6.85;;
3747;SDS011;1889;50.058;8.688;2024-02-21T04:24:21;12.88;;;6.35;;
3747;SDS011;1889;50.058;8.688;2024-02-21T04:26:50;11.60;;;6.20;;
3747;SDS011;1889;50.058;8.688;2024-02-21T04:29:20;12.10;;;6.42;;
3747;SDS011;1889;50.058;8.688;2024-02-21T04:31:49;10.60;;;5.83;;
3747;SDS011;1889;50.058;8.688;2024-02-21T04:34:18;10.10;;;6.12;;
3747;SDS011;1889;50.058;8.688;2024-02-21T04:36:47;7.50;;;5.90;;
3747;SDS011;1889;50.058;8.688;2024-02-21T04:39:17;11.25;;;6.65;;
3747;SDS011;1889;50.058;8.688;2024-02-21T04:41:46;11.33;;;6.15;;
3747;SDS011;1889;50.058;8.688;2024-02-21T04:44:15;12.73;;;5.80;;
3747;SDS011;1889;50.058;8.688;2024-02-21T04:46:46;13.93;;;6.55;;
3747;SDS011;1889;50.058;8.688;2024-02-21T04:49:16;10.88;;;6.15;;
3747;SDS011;1889;50.058;8.688;2024-02-21T04:51:45;10.10;;;6.05;;
3747;SDS011;1889;50.058;8.688;2024-02-21T04:54:14;13.08;;;6.75;;
3747;SDS011;1889;50.058;8.688;2024-02-21T04:56:44;9.73;;;6.30;;
3747;SDS011;1889;50.058;8.688;2024-02-21T04:59:13;10.80;;;5.72;;
3747;SDS011;1889;50.058;8.688;2024-02-21T05:01:42;12.05;;;6.28;;
3747;SDS011;1889;50.058;8.688;2024-02-21T05:04:12;11.33;;;6.05;;
3747;SDS011;1889;50.058;8.688;2024-02-21T05:06:41;12.75;;;6.30;;
3747;SDS011;1889;50.058;8.688;2024-02-21T05:09:10;11.57;;;5.65;;
3747;SDS011;1889;50.058;8.688;2024-02-21T05:11:40;12.18;;;5.83;;
3747;SDS011;1889;50.058;8.688;2024-02-21T05:14:09;11.28;;;6.15;;
3747;SDS011;1889;50.058;8.688;2024-02-21T05:16:39;11.53;;;6.40;;
3747;SDS011;1889;50.058;8.688;2024-02-21T05:19:08;13.08;;;5.95;;
3747;SDS011;1889;50.058;8.688;2024-02-21T05:21:37;12.95;;;6.33;;
3747;SDS011;1889;50.058;8.688;2024-02-21T05:24:07;14.58;;;5.92;;
3747;SDS011;1889;50.058;8.688;2024-02-21T05:26:36;12.68;;;5.90;;
3747;SDS011;1889;50.058;8.688;2024-02-21T05:29:05;13.25;;;6.17;;
3747;SDS011;1889;50.058;8.688;2024-02-21T05:34:25;16.60;;;6.60;;
3747;SDS011;1889;50.058;8.688;2024-02-21T05:36:54;12.85;;;6.80;;
3747;SDS011;1889;50.058;8.688;2024-02-21T05:39:25;10.53;;;6.03;;
3747;SDS011;1889;50.058;8.688;2024-02-21T05:41:54;11.55;;;6.37;;
3747;SDS011;1889;50.058;8.688;2024-02-21T05:44:23;12.40;;;5.97;;
3747;SDS011;1889;50.058;8.688;2024-02-21T05:46:54;14.38;;;6.25;;
3747;SDS011;1889;50.058;8.688;2024-02-21T05:49:23;13.32;;;6.20;;
3747;SDS011;1889;50.058;8.688;2024-02-21T05:51:53;8.35;;;5.33;;
3747;SDS011;1889;50.058;8.688;2024-02-21T05:54:22;10.90;;;6.00;;
3747;SDS011;1889;50.058;8.688;2024-02-21T05:56:51;13.40;;;6.87;;
3747;SDS011;1889;50.058;8.688;2024-02-21T05:59:20;11.53;;;5.78;;
3747;SDS011;1889;50.058;8.688;2024-02-21T06:01:56;10.43;;;5.83;;
3747;SDS011;1889;50.058;8.688;2024-02-21T06:04:26;9.58;;;5.35;;
3747;SDS011;1889;50.058;8.688;2024-02-21T06:06:55;10.90;;;6.10;;
3747;SDS011;1889;50.058;8.688;2024-02-21T06:09:25;12.82;;;6.28;;
3747;SDS011;1889;50.058;8.688;2024-02-21T06:11:54;10.75;;;5.75;;
3747;SDS011;1889;50.058;8.688;2024-02-21T06:14:24;14.35;;;6.35;;
3747;SDS011;1889;50.058;8.688;2024-02-21T06:16:53;10.78;;;5.78;;
3747;SDS011;1889;50.058;8.688;2024-02-21T06:19:23;11.95;;;6.37;;
3747;SDS011;1889;50.058;8.688;2024-02-21T06:21:52;11.22;;;5.75;;
3747;SDS011;1889;50.058;8.688;2024-02-21T06:24:21;9.48;;;5.65;;
3747;SDS011;1889;50.058;8.688;2024-02-21T06:26:50;11.30;;;6.03;;
3747;SDS011;1889;50.058;8.688;2024-02-21T06:29:20;10.38;;;5.67;;
3747;SDS011;1889;50.058;8.688;2024-02-21T06:31:49;13.98;;;6.12;;
3747;SDS011;1889;50.058;8.688;2024-02-21T06:34:18;12.15;;;5.58;;
3747;SDS011;1889;50.058;8.688;2024-02-21T06:36:48;14.73;;;6.12;;
3747;SDS011;1889;50.058;8.688;2024-02-21T06:39:17;10.63;;;5.42;;
3747;SDS011;1889;50.058;8.688;2024-02-21T06:41:47;11.05;;;6.58;;
3747;SDS011;1889;50.058;8.688;2024-02-21T06:44:17;11.05;;;6.42;;
3747;SDS011;1889;50.058;8.688;2024-02-21T06:46:47;13.40;;;6.35;;
3747;SDS011;1889;50.058;8.688;2024-02-21T06:49:16;9.25;;;6.03;;
3747;SDS011;1889;50.058;8.688;2024-02-21T06:51:46;9.65;;;6.95;;
3747;SDS011;1889;50.058;8.688;2024-02-21T06:54:15;12.00;;;6.45;;
3747;SDS011;1889;50.058;8.688;2024-02-21T06:56:44;12.20;;;6.28;;
3747;SDS011;1889;50.058;8.688;2024-02-21T06:59:14;7.10;;;5.53;;
3747;SDS011;1889;50.058;8.688;2024-02-21T07:01:54;13.98;;;5.58;;
3747;SDS011;1889;50.058;8.688;2024-02-21T07:04:15;11.70;;;5.58;;
3747;SDS011;1889;50.058;8.688;2024-02-21T07:06:45;12.55;;;5.62;;
3747;SDS011;1889;50.058;8.688;2024-02-21T07:09:14;10.40;;;5.37;;
3747;SDS011;1889;50.058;8.688;2024-02-21T07:11:43;6.75;;;4.67;;
3747;SDS011;1889;50.058;8.688;2024-02-21T07:14:19;10.00;;;5.12;;
3747;SDS011;1889;50.058;8.688;2024-02-21T07:16:44;9.68;;;5.35;;
3747;SDS011;1889;50.058;8.688;2024-02-21T07:19:13;12.00;;;5.40;;
3747;SDS011;1889;50.058;8.688;2024-02-21T07:21:42;10.85;;;4.78;;
3747;SDS011;1889;50.058;8.688;2024-02-21T07:24:12;9.78;;;4.83;;
3747;SDS011;1889;50.058;8.688;2024-02-21T07:26:41;11.15;;;4.97;;
3747;SDS011;1889;50.058;8.688;2024-02-21T07:29:14;9.10;;;4.75;;
3747;SDS011;1889;50.058;8.688;2024-02-21T07:31:43;10.48;;;4.97;;
3747;SDS011;1889;50.058;8.688;2024-02-21T07:34:15;11.73;;;5.15;;
3747;SDS011;1889;50.058;8.688;2024-02-21T07:36:44;7.75;;;4.60;;
3747;SDS011;1889;50.058;8.688;2024-02-21T07:39:13;8.93;;;4.67;;
3747;SDS011;1889;50.058;8.688;2024-02-21T07:41:43;11.93;;;4.50;;
3747;SDS011;1889;50.058;8.688;2024-02-21T07:44:14;6.85;;;4.40;;
3747;SDS011;1889;50.058;8.688;2024-02-21T07:46:44;11.35;;;4.70;;
3747;SDS011;1889;50.058;8.688;2024-02-21T07:49:13;8.15;;;4.12;;
3747;SDS011;1889;50.058;8.688;2024-02-21T07:51:42;8.68;;;4.90;;
3747;SDS011;1889;50.058;8.688;2024-02-21T07:54:12;14.25;;;4.70;;
3747;SDS011;1889;50.058;8.688;2024-02-21T07:56:41;9.45;;;4.55;;
3747;SDS011;1889;50.058;8.688;2024-02-21T07:59:10;7.55;;;4.53;;
3747;SDS011;1889;50.058;8.688;2024-02-21T08:01:41;9.55;;;4.12;;
3747;SDS011;1889;50.058;8.688;2024-02-21T08:04:12;9.33;;;4.12;;
3747;SDS011;1889;50.058;8.688;2024-02-21T08:06:41;7.08;;;4.17;;
3747;SDS011;1889;50.058;8.688;2024-02-21T08:09:12;8.48;;;4.30;;
3747;SDS011;1889;50.058;8.688;2024-02-21T08:11:41;8.50;;;4.05;;
3747;SDS011;1889;50.058;8.688;2024-02-21T08:14:11;6.37;;;4.12;;
3747;SDS011;1889;50.058;8.688;2024-02-21T08:16:42;8.50;;;4.25;;
3747;SDS011;1889;50.058;8.688;2024-02-21T08:19:11;11.35;;;4.22;;
3747;SDS011;1889;50.058;8.688;2024-02-21T08:21:41;6.80;;;4.12;;
3747;SDS011;1889;50.058;8.688;2024-02-21T08:24:10;9.58;;;4.12;;
3747;SDS011;1889;50.058;8.688;2024-02-21T08:26:42;6.62;;;4.42;;
3747;SDS011;1889;50.058;8.688;2024-02-21T08:29:15;10.90;;;4.28;;
3747;SDS011;1889;50.058;8.688;2024-02-21T08:31:44;11.95;;;4.50;;
3747;SDS011;1889;50.058;8.688;2024-02-21T08:34:13;10.53;;;4.35;;
3747;SDS011;1889;50.058;8.688;2024-02-21T08:36:43;7.60;;;4.22;;
3747;SDS011;1889;50.058;8.688;2024-02-21T08:39:12;11.22;;;4.97;;
3747;SDS011;1889;50.058;8.688;2024-02-21T08:41:43;6.08;;;4.20;;
3747;SDS011;1889;50.058;8.688;2024-02-21T08:44:12;11.63;;;4.80;;
3747;SDS011;1889;50.058;8.688;2024-02-21T08:46:42;11.53;;;4.65;;
3747;SDS011;1889;50.058;8.688;2024-02-21T08:49:11;7.15;;;4.33;;
3747;SDS011;1889;50.058;8.688;2024-02-21T08:51:41;9.00;;;4.20;;
3747;SDS011;1889;50.058;8.688;2024-02-21T08:54:11;10.05;;;3.87;;
3747;SDS011;1889;50.058;8.688;2024-02-21T08:56:40;6.37;;;4.35;;
3747;SDS011;1889;50.058;8.688;2024-02-21T08:59:09;10.58;;;4.28;;
3747;SDS011;1889;50.058;8.688;2024-02-21T09:01:39;7.00;;;4.00;;
3747;SDS011;1889;50.058;8.688;2024-02-21T09:04:08;8.25;;;4.40;;
3747;SDS011;1889;50.058;8.688;2024-02-21T09:06:37;7.12;;;4.15;;
3747;SDS011;1889;50.058;8.688;2024-02-21T09:09:08;7.60;;;3.98;;
3747;SDS011;1889;50.058;8.688;2024-02-21T09:11:38;7.62;;;4.60;;
3747;SDS011;1889;50.058;8.688;2024-02-21T09:14:08;7.75;;;4.05;;
3747;SDS011;1889;50.058;8.688;2024-02-21T09:16:37;10.23;;;4.10;;
3747;SDS011;1889;50.058;8.688;2024-02-21T09:19:07;8.48;;;3.80;;
3747;SDS011;1889;50.058;8.688;2024-02-21T09:21:37;8.70;;;3.85;;
3747;SDS011;1889;50.058;8.688;2024-02-21T09:24:07;9.95;;;3.90;;
3747;SDS011;1889;50.058;8.688;2024-02-21T09:26:36;8.73;;;4.08;;
3747;SDS011;1889;50.058;8.688;2024-02-21T09:29:05;8.33;;;4.20;;
3747;SDS011;1889;50.058;8.688;2024-02-21T09:31:35;12.18;;;3.90;;
3747;SDS011;1889;50.058;8.688;2024-02-21T09:34:06;9.98;;;4.42;;
3747;SDS011;1889;50.058;8.688;2024-02-21T09:36:35;11.93;;;4.28;;
3747;SDS011;1889;50.058;8.688;2024-02-21T09:39:05;10.23;;;4.08;;
3747;SDS011;1889;50.058;8.688;2024-02-21T09:41:35;7.35;;;4.12;;
3747;SDS011;1889;50.058;8.688;2024-02-21T09:44:07;6.70;;;3.80;;
3747;SDS011;1889;50.058;8.688;2024-02-21T09:49:32;7.42;;;3.65;;
3747;SDS011;1889;50.058;8.688;2024-02-21T09:52:04;8.68;;;3.83;;
3747;SDS011;1889;50.058;8.688;2024-02-21T09:54:34;8.00;;;3.75;;
3747;SDS011;1889;50.058;8.688;2024-02-21T09:57:04;6.62;;;3.40;;
3747;SDS011;1889;50.058;8.688;2024-02-21T09:59:34;8.45;;;4.17;;
3747;SDS011;1889;50.058;8.688;2024-02-21T10:02:03;8.10;;;4.20;;
3747;SDS011;1889;50.058;8.688;2024-02-21T10:04:33;8.25;;;4.15;;
3747;SDS011;1889;50.058;8.688;2024-02-21T10:07:03;10.58;;;4.08;;
3747;SDS011;1889;50.058;8.688;2024-02-21T10:09:32;6.92;;;3.92;;
3747;SDS011;1889;50.058;8.688;2024-02-21T10:12:08;5.60;;;3.90;;
3747;SDS011;1889;50.058;8.688;2024-02-21T10:14:38;6.35;;;4.08;;
3747;SDS011;1889;50.058;8.688;2024-02-21T10:17:08;5.72;;;4.00;;
3747;SDS011;1889;50.058;8.688;2024-02-21T10:19:40;10.43;;;3.77;;
3747;SDS011;1889;50.058;8.688;2024-02-21T10:22:09;6.72;;;3.90;;
3747;SDS011;1889;50.058;8.688;2024-02-21T10:24:39;5.80;;;3.83;;
3747;SDS011;1889;50.058;8.688;2024-02-21T10:27:11;8.43;;;4.35;;
3747;SDS011;1889;50.058;8.688;2024-02-21T10:29:40;10.10;;;4.28;;
3747;SDS011;1889;50.058;8.688;2024-02-21T10:32:10;10.48;;;3.87;;
3747;SDS011;1889;50.058;8.688;2024-02-21T10:34:41;7.85;;;3.92;;
3747;SDS011;1889;50.058;8.688;2024-02-21T10:37:11;10.10;;;4.20;;
3747;SDS011;1889;50.058;8.688;2024-02-21T10:39:41;7.95;;;3.92;;
3747;SDS011;1889;50.058;8.688;2024-02-21T10:42:12;7.47;;;3.83;;
3747;SDS011;1889;50.058;8.688;2024-02-21T10:44:42;7.17;;;3.52;;
3747;SDS011;1889;50.058;8.688;2024-02-21T10:47:13;6.62;;;3.62;;
3747;SDS011;1889;50.058;8.688;2024-02-21T10:49:48;12.78;;;4.25;;
3747;SDS011;1889;50.058;8.688;2024-02-21T10:52:25;8.05;;;3.62;;
3747;SDS011;1889;50.058;8.688;2024-02-21T10:55:03;8.13;;;3.92;;
3747;SDS011;1889;50.058;8.688;2024-02-21T10:57:32;8.50;;;4.22;;
3747;SDS011;1889;50.058;8.688;2024-02-21T11:00:03;7.20;;;4.10;;
3747;SDS011;1889;50.058;8.688;2024-02-21T11:02:35;10.13;;;3.92;;
3747;SDS011;1889;50.058;8.688;2024-02-21T11:05:07;10.35;;;4.28;;
3747;SDS011;1889;50.058;8.688;2024-02-21T11:07:37;5.45;;;3.27;;
3747;SDS011;1889;50.058;8.688;2024-02-21T11:10:19;9.33;;;3.92;;
3747;SDS011;1889;50.058;8.688;2024-02-21T11:12:39;10.63;;;4.30;;
3747;SDS011;1889;50.058;8.688;2024-02-21T11:15:08;6.22;;;3.77;;
3747;SDS011;1889;50.058;8.688;2024-02-21T11:17:39;8.60;;;4.22;;
3747;SDS011;1889;50.058;8.688;2024-02-21T11:20:12;11.30;;;3.92;;
3747;SDS011;1889;50.058;8.688;2024-02-21T11:22:42;7.80;;;4.37;;
3747;SDS011;1889;50.058;8.688;2024-02-21T11:25:11;7.87;;;4.47;;
3747;SDS011;1889;50.058;8.688;2024-02-21T11:27:45;7.40;;;4.35;;
3747;SDS011;1889;50.058;8.688;2024-02-21T11:30:15;10.08;;;4.00;;
3747;SDS011;1889;50.058;8.688;2024-02-21T11:32:46;6.08;;;3.95;;
3747;SDS011;1889;50.058;8.688;2024-02-21T11:35:21;7.47;;;4.10;;
3747;SDS011;1889;50.058;8.688;2024-02-21T11:37:50;8.05;;;3.47;;
3747;SDS011;1889;50.058;8.688;2024-02-21T11:40:20;10.45;;;4.08;;
3747;SDS011;1889;50.058;8.688;2024-02-21T11:42:49;8.95;;;4.12;;
3747;SDS011;1889;50.058;8.688;2024-02-21T11:45:19;9.40;;;3.30;;
3747;SDS011;1889;50.058;8.688;2024-02-21T11:47:49;4.90;;;3.27;;
3747;SDS011;1889;50.058;8.688;2024-02-21T11:50:18;6.85;;;3.30;;
3747;SDS011;1889;50.058;8.688;2024-02-21T11:52:48;8.65;;;3.75;;
3747;SDS011;1889;50.058;8.688;2024-02-21T11:55:17;11.60;;;5.60;;
3747;SDS011;1889;50.058;8.688;2024-02-21T11:57:47;7.60;;;3.30;;
3747;SDS011;1889;50.058;8.688;2024-02-21T12:00:17;6.03;;;3.50;;
3747;SDS011;1889;50.058;8.688;2024-02-21T12:02:52;8.98;;;3.22;;
3747;SDS011;1889;50.058;8.688;2024-02-21T12:05:25;17.02;;;11.10;;
3747;SDS011;1889;50.058;8.688;2024-02-21T12:07:56;10.00;;;3.75;;
3747;SDS011;1889;50.058;8.688;2024-02-21T12:10:26;8.50;;;3.27;;
3747;SDS011;1889;50.058;8.688;2024-02-21T12:13:05;5.65;;;3.90;;
3747;SDS011;1889;50.058;8.688;2024-02-21T12:15:35;8.55;;;3.83;;
3747;SDS011;1889;50.058;8.688;2024-02-21T12:18:07;6.55;;;3.25;;
3747;SDS011;1889;50.058;8.688;2024-02-21T12:20:38;8.65;;;4.70;;
3747;SDS011;1889;50.058;8.688;2024-02-21T12:23:11;15.10;;;10.00;;
3747;SDS011;1889;50.058;8.688;2024-02-21T12:25:40;10.70;;;4.33;;
3747;SDS011;1889;50.058;8.688;2024-02-21T12:28:10;7.83;;;3.98;;
3747;SDS011;1889;50.058;8.688;2024-02-21T12:30:39;9.80;;;3.47;;
3747;SDS011;1889;50.058;8.688;2024-02-21T12:33:10;8.20;;;3.62;;
3747;SDS011;1889;50.058;8.688;2024-02-21T12:35:41;9.28;;;3.83;;
3747;SDS011;1889;50.058;8.688;2024-02-21T12:38:10;8.65;;;3.60;;
3747;SDS011;1889;50.058;8.688;2024-02-21T12:40:41;11.50;;;3.47;;
3747;SDS011;1889;50.058;8.688;2024-02-21T12:43:10;7.70;;;3.50;;
3747;SDS011;1889;50.058;8.688;2024-02-21T12:45:39;6.90;;;3.22;;
3747;SDS011;1889;50.058;8.688;2024-02-21T12:48:09;6.92;;;3.65;;
3747;SDS011;1889;50.058;8.688;2024-02-21T12:50:38;8.63;;;3.42;;
3747;SDS011;1889;50.058;8.688;2024-02-21T12:53:09;4.85;;;3.17;;
3747;SDS011;1889;50.058;8.688;2024-02-21T12:55:38;7.62;;;4.05;;
3747;SDS011;1889;50.058;8.688;2024-02-21T12:58:08;8.35;;;3.77;;
3747;SDS011;1889;50.058;8.688;2024-02-21T13:00:37;6.83;;;3.00;;
3747;SDS011;1889;50.058;8.688;2024-02-21T13:03:06;3.35;;;2.90;;
3747;SDS011;1889;50.058;8.688;2024-02-21T13:05:38;5.05;;;3.15;;
3747;SDS011;1889;50.058;8.688;2024-02-21T13:08:08;4.53;;;2.40;;
3747;SDS011;1889;50.058;8.688;2024-02-21T13:10:39;6.72;;;2.80;;
3747;SDS011;1889;50.058;8.688;2024-02-21T13:13:08;5.67;;;2.95;;
3747;SDS011;1889;50.058;8.688;2024-02-21T13:15:38;7.15;;;2.95;;
3747;SDS011;1889;50.058;8.688;2024-02-21T13:18:09;8.48;;;3.45;;
3747;SDS011;1889;50.058;8.688;2024-02-21T13:20:39;4.78;;;3.02;;
3747;SDS011;1889;50.058;8.688;2024-02-21T13:23:08;7.22;;;3.12;;
3747;SDS011;1889;50.058;8.688;2024-02-21T13:25:37;7.80;;;3.20;;
3747;SDS011;1889;50.058;8.688;2024-02-21T13:28:07;8.00;;;3.33;;
3747;SDS011;1889;50.058;8.688;2024-02-21T13:30:37;6.65;;;3.67;;
3747;SDS011;1889;50.058;8.688;2024-02-21T13:33:06;6.45;;;2.90;;
3747;SDS011;1889;50.058;8.688;2024-02-21T13:35:37;8.13;;;3.17;;
3747;SDS011;1889;50.058;8.688;2024-02-21T13:38:06;6.10;;;2.80;;
3747;SDS011;1889;50.058;8.688;2024-02-21T13:40:37;7.08;;;2.80;;
3747;SDS011;1889;50.058;8.688;2024-02-21T13:43:06;8.03;;;2.98;;
3747;SDS011;1889;50.058;8.688;2024-02-21T13:45:36;5.87;;;3.15;;
3747;SDS011;1889;50.058;8.688;2024-02-21T13:48:05;8.10;;;3.05;;
3747;SDS011;1889;50.058;8.688;2024-02-21T13:50:36;4.33;;;2.62;;
3747;SDS011;1889;50.058;8.688;2024-02-21T13:53:07;4.33;;;2.80;;
3747;SDS011;1889;50.058;8.688;2024-02-21T13:55:37;5.30;;;2.42;;
3747;SDS011;1889;50.058;8.688;2024-02-21T13:58:08;6.37;;;2.60;;
3747;SDS011;1889;50.058;8.688;2024-02-21T14:00:37;7.85;;;3.50;;
3747;SDS011;1889;50.058;8.688;2024-02-21T14:03:06;9.38;;;2.87;;
3747;SDS011;1889;50.058;8.688;2024-02-21T14:05:35;4.92;;;2.62;;
3747;SDS011;1889;50.058;8.688;2024-02-21T14:08:06;4.03;;;3.22;;
3747;SDS011;1889;50.058;8.688;2024-02-21T14:10:36;6.92;;;2.67;;
3747;SDS011;1889;50.058;8.688;2024-02-21T14:13:05;4.90;;;2.60;;
3747;SDS011;1889;50.058;8.688;2024-02-21T14:15:34;7.40;;;2.95;;
3747;SDS011;1889;50.058;8.688;2024-02-21T14:18:04;5.35;;;2.65;;
3747;SDS011;1889;50.058;8.688;2024-02-21T14:20:35;11.10;;;3.50;;
3747;SDS011;1889;50.058;8.688;2024-02-21T14:23:05;9.35;;;3.20;;
3747;SDS011;1889;50.058;8.688;2024-02-21T14:25:35;8.03;;;2.85;;
3747;SDS011;1889;50.058;8.688;2024-02-21T14:28:04;5.42;;;2.55;;
3747;SDS011;1889;50.058;8.688;2024-02-21T14:30:35;6.35;;;3.80;;
3747;SDS011;1889;50.058;8.688;2024-02-21T14:33:05;7.35;;;2.70;;
3747;SDS011;1889;50.058;8.688;2024-02-21T14:35:35;6.15;;;2.72;;
3747;SDS011;1889;50.058;8.688;2024-02-21T14:38:04;4.60;;;2.35;;
3747;SDS011;1889;50.058;8.688;2024-02-21T14:40:34;8.20;;;2.47;;
3747;SDS011;1889;50.058;8.688;2024-02-21T14:43:03;4.40;;;2.22;;
3747;SDS011;1889;50.058;8.688;2024-02-21T14:45:32;6.78;;;2.42;;
3747;SDS011;1889;50.058;8.688;2024-02-21T14:48:02;4.20;;;2.20;;
3747;SDS011;1889;50.058;8.688;2024-02-21T14:50:31;4.90;;;2.40;;
3747;SDS011;1889;50.058;8.688;2024-02-21T14:53:01;6.97;;;2.25;;
3747;SDS011;1889;50.058;8.688;2024-02-21T14:55:30;6.97;;;2.85;;
3747;SDS011;1889;50.058;8.688;2024-02-21T14:57:59;7.30;;;3.10;;
3747;SDS011;1889;50.058;8.688;2024-02-21T15:00:29;7.55;;;3.17;;
3747;SDS011;1889;50.058;8.688;2024-02-21T15:02:58;5.78;;;2.87;;
3747;SDS011;1889;50.058;8.688;2024-02-21T15:05:28;6.78;;;2.42;;
3747;SDS011;1889;50.058;8.688;2024-02-21T15:07:57;3.20;;;1.90;;
3747;SDS011;1889;50.058;8.688;2024-02-21T15:10:26;6.00;;;2.72;;
3747;SDS011;1889;50.058;8.688;2024-02-21T15:12:56;7.00;;;3.52;;
3747;SDS011;1889;50.058;8.688;2024-02-21T15:15:25;6.05;;;2.72;;
3747;SDS011;1889;50.058;8.688;2024-02-21T15:17:54;6.17;;;2.30;;
3747;SDS011;1889;50.058;8.688;2024-02-21T15:20:24;6.67;;;2.83;;
3747;SDS011;1889;50.058;8.688;2024-02-21T15:22:53;5.97;;;2.77;;
3747;SDS011;1889;50.058;8.688;2024-02-21T15:25:22;7.20;;;2.72;;
3747;SDS011;1889;50.058;8.688;2024-02-21T15:27:53;5.42;;;3.25;;
3747;SDS011;1889;50.058;8.688;2024-02-21T15:30:22;6.42;;;2.47;;
3747;SDS011;1889;50.058;8.688;2024-02-21T15:32:51;6.50;;;2.67;;